createdAt,value
2023-02-19T00:01:29.987Z,6.34
2023-02-19T00:04:03.567Z,6.53
2023-02-19T00:06:37.009Z,6.26
2023-02-19T00:09:09.626Z,6.18
2023-02-19T00:11:42.236Z,5.72
2023-02-19T00:14:18.002Z,5.48
2023-02-19T00:16:52.816Z,5.73
2023-02-19T00:19:25.220Z,6.14
2023-02-19T00:21:57.320Z,6.06
2023-02-19T00:24:29.073Z,5.93
2023-02-19T00:27:02.595Z,6.19
2023-02-19T00:29:34.439Z,6.31
2023-02-19T00:32:08.930Z,6.57
2023-02-19T00:34:40.510Z,6.72
2023-02-19T00:37:11.679Z,5.82
2023-02-19T00:39:43.831Z,5.92
2023-02-19T00:42:15.482Z,5.83
2023-02-19T00:44:49.432Z,5.83
2023-02-19T00:48:09.219Z,6.12
2023-02-19T00:50:44.420Z,6.23
2023-02-19T00:53:16.729Z,6.23
2023-02-19T00:55:49.158Z,6.54
2023-02-19T00:58:21.704Z,6.54
2023-02-19T01:00:54.537Z,6.52
2023-02-19T01:03:36.943Z,6.02
2023-02-19T01:06:14.378Z,5.93
2023-02-19T01:08:47.279Z,5.35
2023-02-19T01:11:20.840Z,5.74
2023-02-19T01:13:53.093Z,5.81
2023-02-19T01:16:27.943Z,6.05
2023-02-19T01:19:01.434Z,6.14
2023-02-19T01:21:36.920Z,6.10
2023-02-19T01:24:09.374Z,5.80
2023-02-19T01:26:42.196Z,5.79
2023-02-19T01:29:14.394Z,5.70
2023-02-19T01:31:47.568Z,5.96
2023-02-19T01:34:19.703Z,5.66
2023-02-19T01:36:55.010Z,5.66
2023-02-19T01:39:27.314Z,5.18
2023-02-19T01:42:00.036Z,5.23
2023-02-19T01:45:19.006Z,5.23
2023-02-19T01:47:57.155Z,4.86
2023-02-19T01:50:33.192Z,4.69
2023-02-19T01:53:12.449Z,4.85
2023-02-19T01:55:45.956Z,4.88
2023-02-19T01:58:19.838Z,4.96
2023-02-19T02:00:52.509Z,4.48
2023-02-19T02:03:25.615Z,4.31
2023-02-19T02:06:04.174Z,4.51
2023-02-19T02:08:52.555Z,4.77
2023-02-19T02:11:25.239Z,4.97
2023-02-19T02:13:58.466Z,4.97
2023-02-19T02:16:38.058Z,4.52
2023-02-19T02:19:28.107Z,4.33
2023-02-19T02:22:08.696Z,4.27
2023-02-19T02:25:13.800Z,4.37
2023-02-19T02:27:58.520Z,4.63
2023-02-19T02:30:41.140Z,4.36
2023-02-19T02:33:30.878Z,4.43
2023-02-19T02:36:08.499Z,4.56
2023-02-19T02:38:44.463Z,4.42
2023-02-19T02:41:18.846Z,4.54
2023-02-19T02:43:51.165Z,4.38
2023-02-19T02:46:31.758Z,4.62
2023-02-19T02:49:08.785Z,4.59
2023-02-19T02:51:45.358Z,4.88
2023-02-19T02:54:32.516Z,4.31
2023-02-19T02:57:05.897Z,4.18
2023-02-19T02:59:40.998Z,4.39
2023-02-19T03:02:19.354Z,4.38
2023-02-19T03:05:10.498Z,4.22
2023-02-19T03:07:49.678Z,4.65
2023-02-19T03:10:27.537Z,4.73
2023-02-19T03:13:15.657Z,4.45
2023-02-19T03:16:04.465Z,4.41
2023-02-19T03:18:56.486Z,4.49
2023-02-19T03:21:32.004Z,4.26
2023-02-19T03:24:18.781Z,4.51
2023-02-19T03:26:54.202Z,4.54
2023-02-19T03:29:30.374Z,4.35
2023-02-19T03:32:06.599Z,4.17
2023-02-19T03:34:47.262Z,3.98
2023-02-19T03:37:27.332Z,3.94
2023-02-19T03:40:00.815Z,3.96
2023-02-19T03:42:44.642Z,4.10
2023-02-19T03:45:36.922Z,3.93
2023-02-19T03:48:25.778Z,3.89
2023-02-19T03:51:19.059Z,3.50
2023-02-19T03:54:06.061Z,3.70
2023-02-19T03:56:47.085Z,3.32
2023-02-19T03:59:24.481Z,3.09
2023-02-19T04:02:02.359Z,3.47
2023-02-19T04:04:39.830Z,2.98
2023-02-19T04:07:30.117Z,3.33
2023-02-19T04:10:02.719Z,3.14
2023-02-19T04:12:37.204Z,3.26
2023-02-19T04:15:13.498Z,3.27
2023-02-19T04:17:51.381Z,3.47
2023-02-19T04:20:26.419Z,3.30
2023-02-19T04:23:02.022Z,3.32
2023-02-19T04:25:36.023Z,3.12
2023-02-19T04:28:08.602Z,3.14
2023-02-19T04:30:41.079Z,3.25
2023-02-19T04:33:13.676Z,2.77
2023-02-19T04:35:45.985Z,2.83
2023-02-19T04:38:21.264Z,3.09
2023-02-19T04:40:53.503Z,2.96
2023-02-19T04:43:26.034Z,2.80
2023-02-19T04:45:58.236Z,3.20
2023-02-19T04:48:30.976Z,2.95
2023-02-19T04:51:03.053Z,3.12
2023-02-19T04:53:38.737Z,2.94
2023-02-19T04:56:11.737Z,2.76
2023-02-19T04:58:45.074Z,2.84
2023-02-19T05:01:17.758Z,2.52
2023-02-19T05:03:50.335Z,2.76
2023-02-19T05:06:22.935Z,2.64
2023-02-19T05:08:58.235Z,2.86
2023-02-19T05:11:30.615Z,2.90
2023-02-19T05:14:02.976Z,2.70
2023-02-19T05:16:35.375Z,2.52
2023-02-19T05:19:10.452Z,2.47
2023-02-19T05:21:43.473Z,2.64
2023-02-19T05:24:22.193Z,2.77
2023-02-19T05:26:54.213Z,2.42
2023-02-19T05:29:26.953Z,2.36
2023-02-19T05:31:59.286Z,2.21
2023-02-19T05:34:31.924Z,2.39
2023-02-19T05:37:04.173Z,2.34
2023-02-19T05:39:39.552Z,2.39
2023-02-19T05:42:11.809Z,2.51
2023-02-19T05:44:44.283Z,2.26
2023-02-19T05:47:16.667Z,2.39
2023-02-19T05:49:49.178Z,2.30
2023-02-19T05:52:21.441Z,2.61
2023-02-19T05:54:56.933Z,2.54
2023-02-19T06:00:31.635Z,2.48
2023-02-19T06:03:04.138Z,2.60
2023-02-19T06:05:36.632Z,2.61
2023-02-19T06:08:09.014Z,2.59
2023-02-19T06:10:44.913Z,2.61
2023-02-19T06:13:17.885Z,2.72
2023-02-19T06:15:50.655Z,2.68
2023-02-19T06:18:23.239Z,2.74
2023-02-19T06:20:55.812Z,2.10
2023-02-19T06:23:30.781Z,1.97
2023-02-19T06:26:15.746Z,2.43
2023-02-19T06:28:49.557Z,2.79
2023-02-19T06:31:26.265Z,2.78
2023-02-19T06:33:58.624Z,3.04
2023-02-19T06:36:31.467Z,3.14
2023-02-19T06:39:04.800Z,3.18
2023-02-19T06:41:40.266Z,3.16
2023-02-19T06:44:12.570Z,3.13
2023-02-19T06:46:45.195Z,2.67
2023-02-19T06:49:17.560Z,2.97
2023-02-19T06:51:50.212Z,2.94
2023-02-19T06:54:22.189Z,3.16
2023-02-19T06:56:59.419Z,3.21
2023-02-19T06:59:31.696Z,3.55
2023-02-19T07:02:03.890Z,2.75
2023-02-19T07:04:36.477Z,2.92
2023-02-19T07:07:08.787Z,3.09
2023-02-19T07:09:40.742Z,2.89
2023-02-19T07:12:20.158Z,3.40
2023-02-19T07:14:51.552Z,2.99
2023-02-19T07:17:23.701Z,3.34
2023-02-19T07:20:24.200Z,3.06
2023-02-19T07:22:56.734Z,3.32
2023-02-19T07:25:28.372Z,2.99
2023-02-19T07:28:03.101Z,3.48
2023-02-19T07:30:34.870Z,3.23
2023-02-19T07:33:10.095Z,3.67
2023-02-19T07:35:48.422Z,3.10
2023-02-19T07:38:23.116Z,3.50
2023-02-19T07:40:55.377Z,3.00
2023-02-19T07:43:32.714Z,2.69
2023-02-19T07:46:06.667Z,3.30
2023-02-19T07:48:48.624Z,3.68
2023-02-19T07:51:23.064Z,3.64
2023-02-19T07:53:55.588Z,3.29
2023-02-19T07:56:29.275Z,3.60
2023-02-19T07:59:04.139Z,3.50
2023-02-19T08:01:48.246Z,3.44
2023-02-19T08:04:20.305Z,3.39
2023-02-19T08:06:52.101Z,3.46
2023-02-19T08:09:24.466Z,3.41
2023-02-19T08:12:30.984Z,3.62
2023-02-19T08:15:05.728Z,3.82
2023-02-19T08:17:37.573Z,4.06
2023-02-19T08:20:10.357Z,3.97
2023-02-19T08:22:42.463Z,3.75
2023-02-19T08:25:14.426Z,4.03
2023-02-19T08:27:46.425Z,4.31
2023-02-19T08:30:21.455Z,3.93
2023-02-19T08:32:53.359Z,4.00
2023-02-19T08:35:25.835Z,3.76
2023-02-19T08:37:59.339Z,3.89
2023-02-19T08:40:31.584Z,3.70
2023-02-19T08:43:06.732Z,3.97
2023-02-19T08:45:41.911Z,4.08
2023-02-19T08:48:14.640Z,4.34
2023-02-19T08:50:46.742Z,4.44
2023-02-19T08:53:18.761Z,4.35
2023-02-19T08:55:51.311Z,4.30
2023-02-19T08:58:23.371Z,4.69
2023-02-19T09:00:58.832Z,4.65
2023-02-19T09:03:31.254Z,4.83
2023-02-19T09:06:03.549Z,4.38
2023-02-19T09:08:35.769Z,4.39
2023-02-19T09:11:09.596Z,4.59
2023-02-19T09:13:42.217Z,4.50
2023-02-19T09:16:17.571Z,4.73
2023-02-19T09:18:49.811Z,5.08
2023-02-19T09:24:25.936Z,5.31
2023-02-19T09:26:59.074Z,5.08
2023-02-19T09:29:32.412Z,5.50
2023-02-19T09:32:07.871Z,4.92
2023-02-19T09:34:40.498Z,5.21
2023-02-19T09:37:13.160Z,4.85
2023-02-19T09:39:45.418Z,5.33
2023-02-19T09:42:21.877Z,5.28
2023-02-19T09:44:58.817Z,4.97
2023-02-19T09:47:36.663Z,5.58
2023-02-19T09:50:13.621Z,6.16
2023-02-19T09:52:51.856Z,6.29
2023-02-19T09:55:35.034Z,6.55
2023-02-19T09:58:21.255Z,6.63
2023-02-19T10:00:54.453Z,6.26
2023-02-19T10:03:35.506Z,6.63
2023-02-19T10:06:11.565Z,6.99
2023-02-19T10:08:45.531Z,6.95
2023-02-19T10:11:19.487Z,6.69
2023-02-19T10:13:55.095Z,7.38
2023-02-19T10:16:30.408Z,7.28
2023-02-19T10:19:05.611Z,7.46
2023-02-19T10:21:37.868Z,7.64
2023-02-19T10:24:12.211Z,7.62
2023-02-19T10:26:44.387Z,7.60
2023-02-19T10:29:16.815Z,6.84
2023-02-19T10:31:49.403Z,6.27
2023-02-19T10:34:25.912Z,6.54
2023-02-19T10:36:58.210Z,6.07
2023-02-19T10:39:46.390Z,6.45
2023-02-19T10:42:24.668Z,6.12
2023-02-19T10:45:02.196Z,6.33
2023-02-19T10:47:36.250Z,6.67
2023-02-19T10:50:29.973Z,7.34
2023-02-19T10:53:03.918Z,7.49
2023-02-19T10:55:40.971Z,6.52
2023-02-19T10:58:27.590Z,6.44
2023-02-19T11:01:19.860Z,7.09
2023-02-19T11:03:54.590Z,6.24
2023-02-19T11:06:30.715Z,6.63
2023-02-19T11:09:04.491Z,6.82
2023-02-19T11:11:39.993Z,6.59
2023-02-19T11:14:20.174Z,7.14
2023-02-19T11:16:56.516Z,7.61
2023-02-19T11:19:42.795Z,7.17
2023-02-19T11:22:33.979Z,6.56
2023-02-19T11:25:10.149Z,6.51
2023-02-19T11:27:57.921Z,6.62
2023-02-19T11:30:42.774Z,6.90
2023-02-19T11:33:33.069Z,6.45
2023-02-19T11:36:30.465Z,7.03
2023-02-19T11:39:23.012Z,7.89
2023-02-19T11:42:12.500Z,7.52
2023-02-19T11:44:57.133Z,7.23
2023-02-19T11:47:57.321Z,7.88
2023-02-19T11:50:43.056Z,7.21
2023-02-19T11:53:24.317Z,7.27
2023-02-19T11:56:19.303Z,6.62
2023-02-19T11:59:08.115Z,6.61
2023-02-19T12:02:07.640Z,6.71
2023-02-19T12:05:07.456Z,6.47
2023-02-19T12:08:24.077Z,6.97
2023-02-19T12:11:23.492Z,7.33
2023-02-19T12:14:28.291Z,7.61
2023-02-19T12:17:07.492Z,6.67
2023-02-19T12:20:00.791Z,6.70
2023-02-19T12:22:34.472Z,6.65
2023-02-19T12:25:32.193Z,6.15
2023-02-19T12:28:45.213Z,6.98
2023-02-19T12:31:52.301Z,6.94
2023-02-19T12:34:43.872Z,6.74
2023-02-19T12:37:28.008Z,6.98
2023-02-19T12:40:19.050Z,7.12
2023-02-19T12:43:05.191Z,7.33
2023-02-19T12:45:46.184Z,7.44
2023-02-19T12:48:28.511Z,7.12
2023-02-19T12:51:06.391Z,6.53
2023-02-19T12:53:45.437Z,7.20
2023-02-19T12:56:22.492Z,7.08
2023-02-19T12:59:02.441Z,7.20
2023-02-19T13:01:47.157Z,7.36
2023-02-19T13:04:31.431Z,6.56
2023-02-19T13:07:09.308Z,7.20
2023-02-19T13:09:47.421Z,7.32
2023-02-19T13:12:26.060Z,7.03
2023-02-19T13:15:01.978Z,6.92
2023-02-19T13:17:42.424Z,7.73
2023-02-19T13:20:22.452Z,7.25
2023-02-19T13:23:15.902Z,6.97
2023-02-19T13:26:03.282Z,6.71
2023-02-19T13:28:52.808Z,6.95
2023-02-19T13:31:41.716Z,7.31
2023-02-19T13:34:25.827Z,6.80
2023-02-19T13:36:59.278Z,6.83
2023-02-19T13:39:31.526Z,6.64
2023-02-19T13:42:04.167Z,6.95
2023-02-19T13:44:37.581Z,7.58
2023-02-19T13:47:53.545Z,6.94
2023-02-19T13:50:30.299Z,6.59
2023-02-19T13:53:03.609Z,6.95
2023-02-19T13:55:53.284Z,6.83
2023-02-19T13:58:56.056Z,7.21
2023-02-19T14:01:57.758Z,6.86
2023-02-19T14:04:47.748Z,6.85
2023-02-19T14:07:39.986Z,6.56
2023-02-19T14:10:16.780Z,6.50
2023-02-19T14:12:48.978Z,6.99
2023-02-19T14:15:44.348Z,6.85
2023-02-19T14:18:46.940Z,7.17
2023-02-19T14:21:26.210Z,6.77
2023-02-19T14:24:02.078Z,7.03
2023-02-19T14:26:36.943Z,6.96
2023-02-19T14:29:12.346Z,6.49
2023-02-19T14:31:48.640Z,6.74
2023-02-19T14:34:23.213Z,7.28
2023-02-19T14:37:00.948Z,7.42
2023-02-19T14:39:40.625Z,7.10
2023-02-19T14:42:20.983Z,7.10
2023-02-19T14:44:57.125Z,6.80
2023-02-19T14:47:35.206Z,6.43
2023-02-19T14:50:10.568Z,6.40
2023-02-19T14:52:47.002Z,6.48
2023-02-19T14:55:28.306Z,6.92
2023-02-19T14:58:03.608Z,6.45
2023-02-19T15:00:38.748Z,6.04
2023-02-19T15:03:29.050Z,6.33
2023-02-19T15:06:05.504Z,6.56
2023-02-19T15:08:41.182Z,6.15
2023-02-19T15:11:22.243Z,6.02
2023-02-19T15:13:59.210Z,5.94
2023-02-19T15:16:32.773Z,6.34
2023-02-19T15:19:09.541Z,6.03
2023-02-19T15:21:47.612Z,5.89
2023-02-19T15:24:22.106Z,5.70
2023-02-19T15:26:59.177Z,5.81
2023-02-19T15:29:33.328Z,6.11
2023-02-19T15:32:05.177Z,6.36
2023-02-19T15:34:37.019Z,5.93
2023-02-19T15:37:16.188Z,5.75
2023-02-19T15:39:50.680Z,5.77
2023-02-19T15:42:28.653Z,5.74
2023-02-19T15:45:06.528Z,5.82
2023-02-19T15:47:42.498Z,5.68
2023-02-19T15:50:18.722Z,5.55
2023-02-19T15:52:53.285Z,5.64
2023-02-19T15:55:35.406Z,5.89
2023-02-19T15:58:19.772Z,5.83
2023-02-19T16:00:56.513Z,5.94
2023-02-19T16:03:33.412Z,5.96
2023-02-19T16:06:25.803Z,5.94
2023-02-19T16:09:05.996Z,5.70
2023-02-19T16:11:39.993Z,5.21
2023-02-19T16:14:34.368Z,5.82
2023-02-19T16:17:15.813Z,5.74
2023-02-19T16:19:50.486Z,6.02
2023-02-19T16:22:25.130Z,5.86
2023-02-19T16:24:59.265Z,5.49
2023-02-19T16:27:34.449Z,5.48
2023-02-19T16:30:13.031Z,5.95
2023-02-19T16:32:47.086Z,5.94
2023-02-19T16:35:40.064Z,5.40
2023-02-19T16:38:16.973Z,5.46
2023-02-19T16:41:16.587Z,5.53
2023-02-19T16:43:48.656Z,5.73
2023-02-19T16:46:23.110Z,5.49
2023-02-19T16:48:55.227Z,5.72
2023-02-19T16:51:29.486Z,5.74
2023-02-19T16:54:01.471Z,5.79
2023-02-19T16:56:33.286Z,5.82
2023-02-19T16:59:05.249Z,5.94
2023-02-19T17:01:40.466Z,5.88
2023-02-19T17:04:16.242Z,5.32
2023-02-19T17:06:48.108Z,5.61
2023-02-19T17:09:20.206Z,5.70
2023-02-19T17:11:52.049Z,4.88
2023-02-19T17:14:24.009Z,5.31
2023-02-19T17:17:00.447Z,5.58
2023-02-19T17:19:33.808Z,5.77
2023-02-19T17:22:05.751Z,5.95
2023-02-19T17:24:37.808Z,5.87
2023-02-19T17:27:13.550Z,5.17
2023-02-19T17:29:45.559Z,4.86
2023-02-19T17:32:19.881Z,5.38
2023-02-19T17:34:51.998Z,4.66
2023-02-19T17:37:23.568Z,4.76
2023-02-19T17:39:55.803Z,5.38
2023-02-19T17:42:27.598Z,5.31
2023-02-19T17:44:59.675Z,5.63
2023-02-19T17:47:50.616Z,5.53
2023-02-19T17:50:25.336Z,5.78
2023-02-19T17:52:57.062Z,5.82
2023-02-19T17:55:30.265Z,4.96
2023-02-19T17:58:01.856Z,5.25
2023-02-19T18:00:35.549Z,4.81
2023-02-19T18:03:10.749Z,4.49
2023-02-19T18:05:43.091Z,4.51
2023-02-19T18:08:15.148Z,4.59
2023-02-19T18:10:47.448Z,4.70
2023-02-19T18:13:19.346Z,4.70
2023-02-19T18:15:51.647Z,5.16
2023-02-19T18:18:44.583Z,4.85
2023-02-19T18:21:17.266Z,5.37
2023-02-19T18:23:50.219Z,4.95
2023-02-19T18:26:24.934Z,5.25
2023-02-19T18:28:56.920Z,5.44
2023-02-19T18:31:29.332Z,4.53
2023-02-19T18:34:04.000Z,4.69
2023-02-19T18:36:36.361Z,4.52
2023-02-19T18:39:08.385Z,4.95
2023-02-19T18:41:40.658Z,5.29
2023-02-19T18:44:12.605Z,4.56
2023-02-19T18:46:45.802Z,4.96
2023-02-19T18:49:21.260Z,5.26
2023-02-19T18:51:53.707Z,5.40
2023-02-19T18:54:26.918Z,5.36
2023-02-19T18:57:00.982Z,5.25
2023-02-19T18:59:32.968Z,4.66
2023-02-19T19:02:07.960Z,4.59
2023-02-19T19:04:43.372Z,4.91
2023-02-19T19:07:15.970Z,5.22
2023-02-19T19:09:47.841Z,5.11
2023-02-19T19:12:20.687Z,5.02
2023-02-19T19:14:53.613Z,4.96
2023-02-19T19:17:26.045Z,5.24
2023-02-19T19:20:00.793Z,4.79
2023-02-19T19:22:33.194Z,4.46
2023-02-19T19:25:05.490Z,4.13
2023-02-19T19:27:38.283Z,3.74
2023-02-19T19:30:17.770Z,3.78
2023-02-19T19:32:52.395Z,4.02
2023-02-19T19:35:28.924Z,4.30
2023-02-19T19:38:01.281Z,4.77
2023-02-19T19:40:33.603Z,4.56
2023-02-19T19:43:06.518Z,4.75
2023-02-19T19:45:38.587Z,4.38
2023-02-19T19:48:10.862Z,4.23
2023-02-19T19:50:45.542Z,4.42
2023-02-19T19:53:18.480Z,4.70
2023-02-19T19:55:50.398Z,4.92
2023-02-19T19:58:25.087Z,4.98
2023-02-19T20:01:06.282Z,4.96
2023-02-19T20:03:38.749Z,5.04
2023-02-19T20:06:13.331Z,4.98
2023-02-19T20:08:45.720Z,4.90
2023-02-19T20:11:17.510Z,4.49
2023-02-19T20:13:49.630Z,4.77
2023-02-19T20:16:27.139Z,4.71
2023-02-19T20:18:59.276Z,4.63
2023-02-19T20:21:33.951Z,4.67
2023-02-19T20:24:06.164Z,4.60
2023-02-19T20:26:37.934Z,4.68
2023-02-19T20:29:11.627Z,4.75
2023-02-19T20:31:43.404Z,4.71
2023-02-19T20:34:15.365Z,4.59
2023-02-19T20:36:51.584Z,4.57
2023-02-19T20:39:29.149Z,4.61
2023-02-19T20:42:02.582Z,4.58
2023-02-19T20:44:35.005Z,4.25
2023-02-19T20:47:07.211Z,3.68
2023-02-19T20:49:39.454Z,3.74
2023-02-19T20:52:14.011Z,3.55
2023-02-19T20:54:46.389Z,3.46
2023-02-19T20:57:18.590Z,3.59
2023-02-19T20:59:50.814Z,3.93
2023-02-19T21:02:24.821Z,4.13
2023-02-19T21:04:57.356Z,3.69
2023-02-19T21:07:32.010Z,3.61
2023-02-19T21:10:04.061Z,4.12
2023-02-19T21:12:36.907Z,4.29
2023-02-19T21:15:09.866Z,3.70
2023-02-19T21:17:41.983Z,3.79
2023-02-19T21:20:14.867Z,3.52
2023-02-19T21:22:50.552Z,3.79
2023-02-19T21:25:22.661Z,4.07
2023-02-19T21:27:54.499Z,4.03
2023-02-19T21:30:26.621Z,4.20
2023-02-19T21:32:58.440Z,4.09
2023-02-19T21:35:31.117Z,3.97
2023-02-19T21:38:05.952Z,4.03
2023-02-19T21:40:38.032Z,3.94
2023-02-19T21:43:09.740Z,4.11
2023-02-19T21:45:42.981Z,3.87
2023-02-19T21:48:14.833Z,3.88
2023-02-19T21:50:47.679Z,4.07
2023-02-19T21:53:21.977Z,3.96
2023-02-19T21:55:58.708Z,3.83
2023-02-19T21:58:30.841Z,3.51
2023-02-19T22:01:03.105Z,3.64
2023-02-19T22:03:35.109Z,3.78
2023-02-19T22:06:07.851Z,3.52
2023-02-19T22:08:42.450Z,3.39
2023-02-19T22:11:15.097Z,4.03
2023-02-19T22:13:47.571Z,4.57
2023-02-19T22:16:20.762Z,4.31
2023-02-19T22:18:54.969Z,3.97
2023-02-19T22:21:32.673Z,3.80
2023-02-19T22:24:08.151Z,3.54
2023-02-19T22:26:40.712Z,4.11
2023-02-19T22:29:15.469Z,4.13
2023-02-19T22:31:48.130Z,3.84
2023-02-19T22:34:20.874Z,3.99
2023-02-19T22:36:53.620Z,3.31
2023-02-19T22:39:30.300Z,3.53
2023-02-19T22:42:02.971Z,3.39
2023-02-19T22:44:35.652Z,3.85
2023-02-19T22:47:08.426Z,3.71
2023-02-19T22:49:43.861Z,4.04
2023-02-19T22:52:17.382Z,3.73
2023-02-19T22:54:55.591Z,3.47
2023-02-19T22:57:29.093Z,3.34
2023-02-19T23:00:03.655Z,3.80
2023-02-19T23:02:36.255Z,3.55
2023-02-19T23:05:08.879Z,3.46
2023-02-19T23:07:41.277Z,3.82
2023-02-19T23:10:17.001Z,3.55
2023-02-19T23:12:49.537Z,3.55
2023-02-19T23:15:21.797Z,3.89
2023-02-19T23:17:54.328Z,2.99
2023-02-19T23:20:26.659Z,3.42
2023-02-19T23:22:59.258Z,3.63
2023-02-19T23:25:33.999Z,3.68
2023-02-19T23:28:06.985Z,3.71
2023-02-19T23:30:39.142Z,3.50
2023-02-19T23:33:11.725Z,3.31
2023-02-19T23:35:43.921Z,3.63
2023-02-19T23:38:16.477Z,3.60
2023-02-19T23:40:51.454Z,3.80
2023-02-19T23:43:24.433Z,3.43
2023-02-19T23:45:57.345Z,3.54
2023-02-19T23:48:29.813Z,3.54
2023-02-19T23:51:02.624Z,3.77
2023-02-19T23:53:35.291Z,3.82
2023-02-19T23:56:10.841Z,3.86
2023-02-19T23:58:43.672Z,3.76
